Time;durP1;ratioP1;P1;durP2;ratioP2;P2;SDS_P1;SDS_P2;PMS_P1;PMS_P2;Temp;Humidity;BMP_temperature;BMP_pressure;BME280_temperature;BME280_humidity;BME280_pressure;Samples;Min_cycle;Max_cycle;Signal;HPM_P1;HPM_P2
2023/07/27 00:01:59;;;;;;;5.17;4.37;;;;;;;14.91;97.89;98058.84;4122702;28;20646;-90
2023/07/27 00:04:02;;;;;;;5.30;4.13;;;;;;;14.87;97.80;98054.81;4137023;28;20760;-90
2023/07/27 00:06:05;;;;;;;4.30;3.77;;;;;;;14.87;98.54;98060.06;4123317;28;20754;-90
2023/07/27 00:08:11;;;;;;;5.33;3.83;;;;;;;14.86;98.02;98060.22;4124844;28;20683;-90
2023/07/27 00:10:14;;;;;;;5.20;3.93;;;;;;;14.82;98.24;98056.16;4137997;28;20646;-90
2023/07/27 00:12:18;;;;;;;5.37;3.90;;;;;;;14.82;98.68;98057.00;4109286;28;20682;-90
2023/07/27 00:14:22;;;;;;;5.93;4.13;;;;;;;14.81;99.28;98055.34;4125907;28;20656;-90
2023/07/27 00:16:25;;;;;;;7.03;4.37;;;;;;;14.80;99.12;98053.69;4134368;28;20655;-90
2023/07/27 00:18:27;;;;;;;4.83;3.77;;;;;;;14.80;97.74;98058.09;4131377;28;20691;-90
2023/07/27 00:20:30;;;;;;;7.80;3.70;;;;;;;14.77;99.21;98053.94;4137363;28;20653;-90
2023/07/27 00:22:34;;;;;;;6.70;3.60;;;;;;;14.77;99.41;98047.88;4132962;28;20665;-90
2023/07/27 00:24:37;;;;;;;5.70;4.00;;;;;;;14.75;98.83;98050.63;4135335;28;21597;-90
2023/07/27 00:26:41;;;;;;;4.90;3.80;;;;;;;14.73;99.24;98049.94;4135547;28;20651;-90
2023/07/27 00:28:44;;;;;;;6.20;4.10;;;;;;;14.73;99.44;98043.81;4120738;28;20658;-90
2023/07/27 00:30:53;;;;;;;6.60;4.20;;;;;;;14.71;99.08;98049.22;4121232;28;20668;-89
2023/07/27 00:32:57;;;;;;;6.40;3.70;;;;;;;14.69;98.37;98045.91;4106002;28;20653;-90
2023/07/27 00:34:59;;;;;;;6.70;3.63;;;;;;;14.67;98.66;98036.47;4125018;28;20654;-90
2023/07/27 00:37:02;;;;;;;5.20;3.77;;;;;;;14.64;99.30;98036.72;4120253;28;21042;-90
2023/07/27 00:39:05;;;;;;;4.13;3.60;;;;;;;14.62;98.91;98036.03;4116426;28;20668;-90
2023/07/27 00:41:08;;;;;;;4.97;3.70;;;;;;;14.64;98.71;98036.72;4118345;28;20695;-90
2023/07/27 00:43:11;;;;;;;5.80;4.10;;;;;;;14.63;99.96;98035.91;4134656;28;20679;-90
2023/07/27 00:45:14;;;;;;;5.40;3.97;;;;;;;14.61;99.41;98032.59;4122581;28;20644;-90
2023/07/27 00:47:19;;;;;;;4.77;3.70;;;;;;;14.63;99.61;98032.47;4109537;28;20659;-90
2023/07/27 00:49:22;;;;;;;4.57;3.50;;;;;;;14.61;99.72;98029.13;4124024;28;21258;-90
2023/07/27 00:51:25;;;;;;;5.10;4.03;;;;;;;14.61;99.92;98027.34;4135575;28;20684;-90
2023/07/27 00:53:28;;;;;;;5.03;3.80;;;;;;;14.62;98.90;98020.28;4126736;28;20655;-90
2023/07/27 00:55:31;;;;;;;5.13;4.00;;;;;;;14.62;98.45;98021.13;4105940;28;21007;-90
2023/07/27 00:57:34;;;;;;;4.20;3.57;;;;;;;14.63;99.37;98025.41;4119153;28;20657;-90
2023/07/27 00:59:39;;;;;;;5.23;3.47;;;;;;;14.62;99.10;98015.03;4113274;28;20665;-91
2023/07/27 01:01:42;;;;;;;4.90;4.20;;;;;;;14.62;98.98;98015.88;4132866;28;20655;-90
2023/07/27 01:03:46;;;;;;;5.60;3.70;;;;;;;14.60;99.67;98009.94;4130548;28;20765;-90
2023/07/27 01:05:50;;;;;;;4.60;4.10;;;;;;;14.59;99.52;98005.63;4134153;28;20744;-90
2023/07/27 01:07:53;;;;;;;5.37;4.03;;;;;;;14.60;99.11;98006.47;4123499;28;20666;-90
2023/07/27 01:09:56;;;;;;;5.63;4.00;;;;;;;14.58;97.70;98010.19;4120016;28;20668;-80
2023/07/27 01:12:04;;;;;;;4.40;3.73;;;;;;;14.55;99.25;97997.31;4114979;28;20665;-80
2023/07/27 01:14:11;;;;;;;5.50;3.80;;;;;;;14.56;99.25;98009.50;4119185;28;20655;-80
2023/07/27 01:16:19;;;;;;;4.70;3.93;;;;;;;14.52;99.33;98005.47;4120621;28;20664;-80
2023/07/27 01:18:27;;;;;;;4.80;3.67;;;;;;;14.53;99.36;98007.94;4104517;28;20648;-80
2023/07/27 01:20:35;;;;;;;5.33;3.93;;;;;;;14.55;98.62;97999.94;4118085;28;20764;-80
2023/07/27 01:23:06;;;;;;;5.20;4.20;;;;;;;14.52;99.51;97995.78;4096589;28;20650;-80
2023/07/27 01:25:27;;;;;;;8.80;4.10;;;;;;;14.50;99.62;97992.47;4123612;28;20661;-80
2023/07/27 01:27:49;;;;;;;6.40;3.80;;;;;;;14.50;98.38;97992.47;4119494;28;20653;-80
2023/07/27 01:30:02;;;;;;;8.40;4.83;;;;;;;14.46;98.87;97992.84;4130839;28;20775;-80
2023/07/27 01:32:08;;;;;;;6.13;4.67;;;;;;;14.43;99.16;97986.06;4108015;28;20638;-80
2023/07/27 01:34:15;;;;;;;5.00;4.10;;;;;;;14.40;98.54;97981.09;4137052;28;21296;-80
2023/07/27 01:36:22;;;;;;;4.70;3.80;;;;;;;14.40;98.88;97980.25;4133997;28;20649;-80
2023/07/27 01:38:26;;;;;;;6.20;4.60;;;;;;;14.39;99.09;97976.81;4123258;28;20648;-80
2023/07/27 01:40:30;;;;;;;5.43;4.57;;;;;;;14.37;99.54;97967.41;4102710;28;20654;-80
2023/07/27 01:42:33;;;;;;;5.50;4.70;;;;;;;14.37;98.99;97970.03;4105640;28;20648;-80
2023/07/27 01:44:36;;;;;;;5.20;4.20;;;;;;;14.34;99.33;97971.13;4116240;28;20659;-80
2023/07/27 01:46:42;;;;;;;5.67;4.37;;;;;;;14.31;98.99;97960.91;4130495;28;20688;-80
2023/07/27 01:48:47;;;;;;;6.50;3.93;;;;;;;14.32;99.59;97964.34;4120368;28;20641;-80
2023/07/27 01:50:51;;;;;;;5.63;4.50;;;;;;;14.33;99.70;97966.00;4117992;28;20691;-80
2023/07/27 01:52:56;;;;;;;6.10;4.67;;;;;;;14.32;98.79;97966.97;4121256;28;20670;-80
2023/07/27 01:54:59;;;;;;;9.50;4.23;;;;;;;14.32;99.46;97956.47;4121888;28;21235;-80
2023/07/27 01:57:03;;;;;;;4.83;3.70;;;;;;;14.29;99.07;97957.56;4100937;28;20730;-80
2023/07/27 01:59:07;;;;;;;6.70;4.90;;;;;;;14.28;99.77;97955.91;4119009;28;20673;-80
2023/07/27 02:01:11;;;;;;;5.20;4.20;;;;;;;14.30;99.52;97961.03;4116844;28;21473;-80
2023/07/27 02:03:14;;;;;;;6.93;3.77;;;;;;;14.29;99.58;97960.19;4124859;28;21150;-80
2023/07/27 02:05:20;;;;;;;6.00;4.33;;;;;;;14.29;99.56;97959.34;4120868;28;20697;-80
2023/07/27 02:07:23;;;;;;;5.53;4.23;;;;;;;14.27;99.33;97958.66;4110530;28;20645;-80
2023/07/27 02:09:26;;;;;;;4.87;4.20;;;;;;;14.24;99.58;97954.50;4107913;28;20753;-80
2023/07/27 02:11:29;;;;;;;5.17;3.83;;;;;;;14.23;99.65;97958.06;4108007;28;21094;-80
2023/07/27 02:13:36;;;;;;;5.03;4.30;;;;;;;14.22;98.95;97956.44;4103687;28;20652;-80
2023/07/27 02:15:44;;;;;;;5.27;3.90;;;;;;;14.24;99.49;97951.06;4111422;28;20760;-80
2023/07/27 02:17:51;;;;;;;6.40;5.00;;;;;;;14.22;98.96;97951.19;4122632;28;20739;-80
2023/07/27 02:19:56;;;;;;;5.40;3.30;;;;;;;14.18;99.41;97947.16;4133322;28;20659;-80
2023/07/27 02:22:03;;;;;;;6.47;4.70;;;;;;;14.18;99.42;97941.91;4119876;28;20757;-80
2023/07/27 02:24:08;;;;;;;5.00;4.47;;;;;;;14.17;98.97;97939.41;4118152;28;20651;-80
2023/07/27 02:26:11;;;;;;;5.13;3.80;;;;;;;14.15;100.00;97946.59;4117390;28;20756;-80
2023/07/27 02:28:13;;;;;;;5.53;4.70;;;;;;;14.17;99.21;97942.03;4106393;28;20753;-80
2023/07/27 02:30:17;;;;;;;4.30;3.90;;;;;;;14.16;99.29;97929.88;4137811;28;21101;-80
2023/07/27 02:32:19;;;;;;;5.80;4.40;;;;;;;14.16;99.51;97929.88;4123611;28;20722;-80
2023/07/27 02:34:22;;;;;;;4.90;3.60;;;;;;;14.14;99.51;97931.81;4113645;28;20652;-80
2023/07/27 02:36:25;;;;;;;4.77;3.77;;;;;;;14.13;99.25;97930.97;4124920;28;21204;-80
2023/07/27 02:38:30;;;;;;;5.40;3.80;;;;;;;14.10;98.85;97919.06;4116019;28;20688;-80
2023/07/27 02:40:33;;;;;;;4.83;3.77;;;;;;;14.06;99.01;97915.91;4124367;28;20735;-80
2023/07/27 02:42:37;;;;;;;5.80;4.50;;;;;;;14.04;98.92;97915.13;4132399;28;20695;-80
2023/07/27 02:44:40;;;;;;;4.57;3.37;;;;;;;14.06;99.15;97921.13;4114913;28;20689;-80
2023/07/27 02:46:42;;;;;;;4.17;3.53;;;;;;;14.04;99.23;97917.75;4116996;28;20655;-80
2023/07/27 02:48:46;;;;;;;4.97;4.17;;;;;;;14.05;99.28;97921.28;4106322;28;21212;-80
2023/07/27 02:50:50;;;;;;;4.53;3.67;;;;;;;14.04;99.19;97915.13;4102091;28;20664;-80
2023/07/27 02:52:53;;;;;;;6.60;4.10;;;;;;;14.05;98.67;97922.09;4113137;28;21219;-80
2023/07/27 02:54:58;;;;;;;4.90;4.40;;;;;;;14.03;99.21;97918.75;4130143;28;20678;-80
2023/07/27 02:57:01;;;;;;;5.47;3.90;;;;;;;14.02;98.88;97922.31;4120878;28;20683;-80
2023/07/27 02:59:16;;;;;;;5.03;4.07;;;;;;;14.00;99.03;97926.03;4126220;28;21140;-80
2023/07/27 03:01:20;;;;;;;6.30;4.13;;;;;;;13.99;99.48;97927.00;4122736;28;20726;-80
2023/07/27 03:03:30;;;;;;;5.90;3.40;;;;;;;13.97;99.25;97927.13;4116827;28;20662;-80
2023/07/27 03:05:42;;;;;;;5.27;3.67;;;;;;;13.99;99.13;97917.34;4122883;28;20827;-80
2023/07/27 03:07:48;;;;;;;5.03;3.90;;;;;;;13.98;99.38;97920.94;4123584;28;20648;-80
2023/07/27 03:09:52;;;;;;;6.00;3.87;;;;;;;13.98;98.95;97922.69;4103152;28;20647;-80
2023/07/27 03:11:57;;;;;;;5.13;3.90;;;;;;;13.98;98.96;97926.19;4123589;28;20763;-80
2023/07/27 03:14:00;;;;;;;5.10;4.20;;;;;;;14.00;99.01;97918.19;4121195;28;20692;-80
2023/07/27 03:16:04;;;;;;;5.30;4.23;;;;;;;13.97;99.31;97919.25;4120703;28;20703;-80
2023/07/27 03:18:08;;;;;;;5.50;3.90;;;;;;;13.98;99.89;97914.84;4119677;28;20666;-80
2023/07/27 03:20:11;;;;;;;4.40;3.60;;;;;;;13.97;99.67;97916.63;4118542;28;20645;-90
2023/07/27 03:22:15;;;;;;;5.30;3.90;;;;;;;13.97;99.51;97916.63;4125455;28;20698;-90
2023/07/27 03:24:18;;;;;;;4.73;3.90;;;;;;;13.99;99.46;97916.50;4116460;28;20672;-90
2023/07/27 03:26:21;;;;;;;4.93;3.50;;;;;;;13.98;99.43;97926.19;4104149;28;20650;-91
2023/07/27 03:28:25;;;;;;;4.23;3.40;;;;;;;14.00;99.45;97921.63;4120402;28;20702;-90
2023/07/27 03:30:28;;;;;;;5.60;3.87;;;;;;;13.98;99.54;97915.69;4122162;28;20660;-90
2023/07/27 03:32:31;;;;;;;5.00;4.40;;;;;;;13.99;99.65;97917.34;4125292;28;20747;-91
2023/07/27 03:34:34;;;;;;;4.90;4.17;;;;;;;14.00;99.66;97919.00;4108908;28;20658;-90
2023/07/27 03:36:38;;;;;;;5.20;3.97;;;;;;;14.01;99.93;97919.81;4109493;28;20646;-90
2023/07/27 03:38:41;;;;;;;4.57;3.90;;;;;;;14.01;100.00;97918.06;4128296;28;20652;-90
2023/07/27 03:40:44;;;;;;;3.73;3.33;;;;;;;14.02;99.58;97917.06;4123696;28;20703;-90
2023/07/27 03:42:47;;;;;;;5.37;3.83;;;;;;;14.03;99.73;97916.13;4125640;28;20648;-90
2023/07/27 03:44:52;;;;;;;4.67;4.00;;;;;;;14.05;99.10;97910.78;4102859;28;20650;-90
2023/07/27 03:46:55;;;;;;;4.30;3.47;;;;;;;14.03;99.32;97912.69;4123366;28;20642;-91
2023/07/27 03:48:58;;;;;;;3.97;3.47;;;;;;;14.04;99.17;97914.31;4124668;28;20656;-90
2023/07/27 03:51:01;;;;;;;4.80;3.60;;;;;;;14.05;99.23;97908.16;4109446;28;20715;-90
2023/07/27 03:53:04;;;;;;;4.40;3.43;;;;;;;14.05;98.76;97908.97;4124168;28;21237;-90
2023/07/27 03:55:08;;;;;;;5.10;3.80;;;;;;;14.05;99.01;97910.78;4135580;28;20654;-91
2023/07/27 03:57:11;;;;;;;5.23;4.13;;;;;;;14.06;99.38;97908.03;4108794;28;21767;-90
2023/07/27 03:59:15;;;;;;;5.23;3.80;;;;;;;14.05;99.76;97906.34;4126122;28;20695;-90
2023/07/27 04:01:19;;;;;;;4.60;4.00;;;;;;;14.08;99.99;97903.47;4104684;28;20660;-90
2023/07/27 04:03:22;;;;;;;5.10;3.83;;;;;;;14.10;99.72;97901.53;4108477;28;20678;-91
2023/07/27 04:05:26;;;;;;;4.93;3.97;;;;;;;14.11;99.86;97900.59;4139545;28;20759;-90
2023/07/27 04:07:29;;;;;;;3.93;3.53;;;;;;;14.11;99.87;97900.59;4133660;28;20652;-89
2023/07/27 04:09:32;;;;;;;5.03;3.97;;;;;;;14.13;100.00;97897.84;4137099;28;20658;-90
2023/07/27 04:11:35;;;;;;;5.80;4.37;;;;;;;14.14;100.00;97892.47;4135224;28;20958;-90
2023/07/27 04:13:38;;;;;;;5.40;4.20;;;;;;;14.17;100.00;97894.81;4125782;28;20770;-91
2023/07/27 04:15:42;;;;;;;4.73;4.10;;;;;;;14.17;100.00;97894.81;4124561;28;20667;-90
2023/07/27 04:17:47;;;;;;;4.87;4.00;;;;;;;14.20;100.00;97887.50;4137409;28;21327;-89
2023/07/27 04:19:50;;;;;;;4.60;4.10;;;;;;;14.22;100.00;97885.59;4134446;28;20663;-89
2023/07/27 04:21:53;;;;;;;4.87;4.00;;;;;;;14.24;100.00;97881.03;4110232;28;20664;-89
2023/07/27 04:23:56;;;;;;;5.17;4.10;;;;;;;14.25;100.00;97881.88;4118763;28;20675;-90
2023/07/27 04:26:02;;;;;;;9.73;4.47;;;;;;;14.27;99.67;97877.34;4120829;28;20749;-90
2023/07/27 04:28:05;;;;;;;4.93;3.73;;;;;;;14.29;100.00;97884.09;4109637;28;20649;-91
2023/07/27 04:30:08;;;;;;;4.30;3.70;;;;;;;14.32;100.00;97877.75;4120192;28;21297;-90
2023/07/27 04:32:11;;;;;;;4.23;3.47;;;;;;;14.31;98.97;97871.69;4134341;28;21314;-90
2023/07/27 04:34:16;;;;;;;4.43;3.80;;;;;;;14.34;99.56;97870.56;4117719;28;20651;-90
2023/07/27 04:36:19;;;;;;;4.90;4.00;;;;;;;14.37;99.82;97867.69;4107119;28;20661;-90
2023/07/27 04:38:28;;;;;;;4.27;3.73;;;;;;;14.38;100.00;97871.97;4138836;28;20713;-90
2023/07/27 04:40:31;;;;;;;4.03;3.60;;;;;;;14.43;100.00;97878.47;4102272;28;20651;-91
2023/07/27 04:42:34;;;;;;;4.53;3.87;;;;;;;14.45;100.00;97878.34;4102053;28;20851;-91
2023/07/27 04:44:37;;;;;;;4.03;3.60;;;;;;;14.46;99.94;97872.97;4119682;28;20656;-91
2023/07/27 04:46:40;;;;;;;4.33;3.93;;;;;;;14.48;99.15;97878.94;4124941;28;21079;-91
2023/07/27 04:48:44;;;;;;;6.67;3.50;;;;;;;14.50;99.12;97873.53;4124660;28;20659;-91
2023/07/27 04:50:49;;;;;;;4.13;3.40;;;;;;;14.54;99.16;97877.53;4139082;28;21229;-91
2023/07/27 04:52:52;;;;;;;6.47;3.90;;;;;;;14.55;99.42;97876.59;4123744;28;20655;-91
2023/07/27 04:54:55;;;;;;;4.90;3.87;;;;;;;14.58;100.00;97874.50;4122284;28;20704;-90
2023/07/27 04:56:58;;;;;;;4.83;3.90;;;;;;;14.59;100.00;97877.00;4118892;28;21220;-90
2023/07/27 04:59:01;;;;;;;7.83;4.60;;;;;;;14.60;99.97;97873.44;4103029;28;20654;-91
2023/07/27 05:01:04;;;;;;;5.00;4.13;;;;;;;14.62;100.00;97866.25;4122406;28;21334;-90
2023/07/27 05:03:06;;;;;;;5.70;4.30;;;;;;;14.65;99.83;97873.84;4124741;28;20664;-90
2023/07/27 05:05:10;;;;;;;4.77;4.00;;;;;;;14.68;100.00;97870.94;4107868;28;20674;-91
2023/07/27 05:07:14;;;;;;;5.73;4.23;;;;;;;14.71;99.48;97869.84;4131756;28;20689;-91
2023/07/27 05:09:17;;;;;;;6.60;4.77;;;;;;;14.75;99.88;97866.84;4130144;28;20695;-90
2023/07/27 05:11:20;;;;;;;5.63;4.63;;;;;;;14.79;99.25;97862.97;4122519;28;20664;-91
2023/07/27 05:13:23;;;;;;;5.33;4.70;;;;;;;14.85;98.89;97862.41;4109031;28;20663;-91
2023/07/27 05:15:26;;;;;;;6.40;4.37;;;;;;;14.89;99.72;97863.81;4117886;28;20661;-91
2023/07/27 05:17:28;;;;;;;5.40;4.80;;;;;;;14.96;100.00;97859.69;4135668;28;20684;-91
2023/07/27 05:19:31;;;;;;;6.60;5.17;;;;;;;15.02;99.12;97863.53;4122296;28;20740;-90
2023/07/27 05:21:34;;;;;;;6.13;4.87;;;;;;;15.05;98.40;97864.09;4123003;28;20675;-79
2023/07/27 05:23:39;;;;;;;6.57;5.20;;;;;;;15.10;99.09;97867.97;4133446;28;20657;-78
2023/07/27 05:25:45;;;;;;;6.47;4.60;;;;;;;15.16;98.88;97862.16;4111392;28;20743;-80
2023/07/27 05:27:48;;;;;;;7.90;4.30;;;;;;;15.23;99.50;97867.72;4119336;28;20650;-80
2023/07/27 05:29:51;;;;;;;9.17;5.43;;;;;;;15.28;100.00;97876.03;4132048;28;21263;-80
2023/07/27 05:31:54;;;;;;;5.73;4.70;;;;;;;15.32;98.58;97869.50;4103759;28;20675;-84
2023/07/27 05:33:57;;;;;;;5.30;4.40;;;;;;;15.37;99.84;97867.31;4107369;28;20640;-77
2023/07/27 05:36:01;;;;;;;6.87;4.70;;;;;;;15.42;100.00;97870.34;4120035;28;20644;-81
2023/07/27 05:38:04;;;;;;;5.47;4.87;;;;;;;15.48;99.45;97861.91;4089093;28;21042;-85
2023/07/27 05:40:10;;;;;;;5.70;4.60;;;;;;;15.53;100.00;97862.31;4110989;28;20741;-78
2023/07/27 05:42:13;;;;;;;4.73;4.10;;;;;;;15.57;98.43;97865.34;4126122;28;21451;-75
2023/07/27 05:44:17;;;;;;;5.10;4.00;;;;;;;15.60;98.94;97856.34;4114226;28;20660;-80
2023/07/27 05:46:20;;;;;;;5.90;4.67;;;;;;;15.61;96.94;97860.63;4136033;28;21001;-79
2023/07/27 05:48:24;;;;;;;5.40;4.20;;;;;;;15.62;98.59;97859.66;4135167;28;21000;-77
2023/07/27 05:50:27;;;;;;;6.17;4.10;;;;;;;15.62;97.36;97855.25;4136686;28;20648;-77
2023/07/27 05:52:30;;;;;;;6.40;4.47;;;;;;;15.65;96.90;97854.09;4129346;28;20649;-77
2023/07/27 05:54:33;;;;;;;4.83;4.07;;;;;;;15.69;98.92;97856.31;4111668;28;21338;-79
2023/07/27 05:56:37;;;;;;;6.97;4.83;;;;;;;15.70;97.33;97868.50;4116886;28;20654;-77
2023/07/27 05:58:41;;;;;;;7.00;4.93;;;;;;;15.75;100.00;97866.25;4135381;28;20751;-76
2023/07/27 06:00:44;;;;;;;5.07;4.17;;;;;;;15.80;98.32;97856.19;4106081;28;20698;-76
2023/07/27 06:02:47;;;;;;;6.07;4.93;;;;;;;15.84;98.39;97860.16;4109699;28;20658;-77
2023/07/27 06:04:51;;;;;;;5.93;4.27;;;;;;;15.87;99.59;97862.50;4119598;28;20717;-77
2023/07/27 06:06:54;;;;;;;5.97;4.80;;;;;;;15.92;99.76;97856.81;4132219;28;20655;-77
2023/07/27 06:08:59;;;;;;;6.40;4.90;;;;;;;15.99;98.95;97864.00;4113533;28;20670;-77
2023/07/27 06:11:04;;;;;;;5.87;5.27;;;;;;;16.04;98.67;97859.97;4121448;28;21399;-77
2023/07/27 06:13:09;;;;;;;5.63;4.53;;;;;;;16.13;99.32;97866.16;4105311;28;21062;-77
2023/07/27 06:15:12;;;;;;;6.60;4.80;;;;;;;16.16;98.71;97865.88;4104368;28;20640;-77
2023/07/27 06:17:15;;;;;;;7.03;4.90;;;;;;;16.19;99.64;97876.09;4117060;28;20651;-78
2023/07/27 06:19:19;;;;;;;5.97;4.67;;;;;;;16.23;98.51;97873.06;4133588;28;20665;-76
2023/07/27 06:21:29;;;;;;;7.53;5.40;;;;;;;16.30;98.29;97873.34;4128875;28;20657;-78
2023/07/27 06:23:32;;;;;;;5.67;5.07;;;;;;;16.38;98.86;97876.06;4124212;28;20671;-78
2023/07/27 06:25:34;;;;;;;7.90;4.80;;;;;;;16.44;98.34;97880.75;4121896;28;20649;-78
2023/07/27 06:27:37;;;;;;;7.10;4.37;;;;;;;16.52;98.62;97864.09;4132054;28;20712;-78
2023/07/27 06:29:41;;;;;;;7.80;4.50;;;;;;;16.58;98.36;97874.03;4119158;28;20679;-75
2023/07/27 06:31:45;;;;;;;8.40;5.63;;;;;;;16.73;97.74;97876.97;4133513;28;21044;-79
2023/07/27 06:33:49;;;;;;;6.73;5.17;;;;;;;16.91;97.06;97881.31;4108264;28;20627;-77
2023/07/27 06:35:52;;;;;;;5.47;4.23;;;;;;;17.11;97.09;97872.31;4134414;28;20731;-78
2023/07/27 06:37:55;;;;;;;5.40;4.90;;;;;;;17.29;96.86;97881.06;4130742;28;20642;-80
2023/07/27 06:39:59;;;;;;;6.47;5.40;;;;;;;17.45;96.89;97881.22;4130484;28;21076;-78
2023/07/27 06:42:03;;;;;;;6.40;4.90;;;;;;;17.54;97.84;97881.13;4105651;28;22015;-81
2023/07/27 06:44:08;;;;;;;5.37;4.67;;;;;;;17.58;96.69;97880.66;4129733;28;20701;-81
2023/07/27 06:46:14;;;;;;;10.67;4.40;;;;;;;17.71;95.71;97867.06;4117575;28;21038;-81
2023/07/27 06:48:18;;;;;;;4.77;3.97;;;;;;;17.88;96.14;97874.97;4119490;28;20659;-80
2023/07/27 06:50:21;;;;;;;4.90;4.40;;;;;;;18.06;95.27;97873.09;4132919;28;20650;-80
2023/07/27 06:52:24;;;;;;;5.00;3.90;;;;;;;18.20;93.93;97869.91;4112043;28;21435;-80
2023/07/27 06:54:27;;;;;;;6.40;4.00;;;;;;;18.32;93.31;97869.47;4133088;28;20697;-80
2023/07/27 06:56:30;;;;;;;4.67;3.67;;;;;;;18.37;91.34;97861.91;4131936;28;20651;-80
2023/07/27 06:58:34;;;;;;;5.70;3.50;;;;;;;18.47;92.86;97873.19;4136502;28;20647;-80
2023/07/27 07:00:38;;;;;;;4.43;3.43;;;;;;;18.53;91.37;97868.09;4119263;28;20658;-80
2023/07/27 07:02:42;;;;;;;3.87;3.30;;;;;;;18.58;90.64;97863.16;4133389;28;21063;-80
2023/07/27 07:04:46;;;;;;;5.93;3.93;;;;;;;18.66;89.88;97860.56;4136266;28;21244;-80
2023/07/27 07:06:49;;;;;;;5.70;4.10;;;;;;;18.74;90.39;97860.56;4137369;28;20665;-80
2023/07/27 07:08:52;;;;;;;3.80;3.30;;;;;;;18.81;91.39;97858.94;4139107;28;20649;-80
2023/07/27 07:10:54;;;;;;;4.67;3.57;;;;;;;18.88;90.50;97861.75;4119657;28;20656;-80
2023/07/27 07:12:57;;;;;;;4.00;3.37;;;;;;;18.93;90.61;97855.03;4122021;28;20648;-80
2023/07/27 07:15:00;;;;;;;4.10;3.47;;;;;;;18.90;88.91;97847.41;4137604;28;21295;-80
2023/07/27 07:17:04;;;;;;;4.03;3.30;;;;;;;18.88;89.02;97847.56;4135045;28;20724;-80
2023/07/27 07:19:09;;;;;;;4.40;3.50;;;;;;;18.88;88.38;97846.72;4135350;28;20689;-80
2023/07/27 07:21:12;;;;;;;3.83;3.20;;;;;;;18.86;88.94;97840.78;4120616;28;20647;-80
2023/07/27 07:23:15;;;;;;;4.87;3.37;;;;;;;18.88;88.80;97836.16;4120740;28;20771;-80
2023/07/27 07:25:18;;;;;;;5.77;4.27;;;;;;;18.85;87.48;97831.19;4119432;28;20660;-80
2023/07/27 07:27:22;;;;;;;4.17;3.40;;;;;;;18.90;89.98;97834.19;4111767;28;20705;-84
2023/07/27 07:29:26;;;;;;;3.50;3.10;;;;;;;18.97;89.72;97833.38;4132792;28;20662;-78
2023/07/27 07:31:30;;;;;;;6.27;3.27;;;;;;;19.03;88.50;97830.13;4106922;28;20662;-78
2023/07/27 07:33:33;;;;;;;3.27;2.77;;;;;;;19.13;87.63;97827.31;4130547;28;20653;-77
2023/07/27 07:35:39;;;;;;;6.33;3.03;;;;;;;19.26;87.85;97825.00;4137519;28;21021;-78
2023/07/27 07:37:42;;;;;;;3.60;2.83;;;;;;;19.37;85.53;97822.88;4121585;28;20649;-81
2023/07/27 07:39:45;;;;;;;4.27;2.60;;;;;;;19.45;86.08;97820.22;4116732;28;21316;-80
2023/07/27 07:41:48;;;;;;;4.43;2.57;;;;;;;19.51;84.17;97825.66;4108600;28;20658;-79
2023/07/27 07:43:52;;;;;;;3.00;2.53;;;;;;;19.53;81.42;97820.19;4111863;28;20735;-81
2023/07/27 07:45:55;;;;;;;4.30;2.53;;;;;;;19.50;84.08;97820.53;4125252;28;20747;-82
2023/07/27 07:47:58;;;;;;;3.70;2.43;;;;;;;19.48;82.46;97815.44;4117158;28;20707;-80
2023/07/27 07:50:02;;;;;;;4.10;2.50;;;;;;;19.45;80.76;97807.84;4120214;28;20655;-82
2023/07/27 07:52:07;;;;;;;3.40;2.53;;;;;;;19.47;80.30;97799.72;4112020;28;21252;-80
2023/07/27 07:54:10;;;;;;;3.57;2.87;;;;;;;19.50;79.43;97802.84;4136571;28;21288;-78
2023/07/27 07:56:14;;;;;;;3.37;2.30;;;;;;;19.57;80.09;97808.31;4133000;28;20692;-80
2023/07/27 07:58:17;;;;;;;3.20;2.40;;;;;;;19.62;80.94;97796.22;4135597;28;20645;-81
2023/07/27 08:00:20;;;;;;;4.93;2.17;;;;;;;19.69;79.47;97797.19;4121348;28;20641;-81
2023/07/27 08:02:23;;;;;;;3.10;2.43;;;;;;;19.72;79.32;97793.41;4132953;28;21183;-78
2023/07/27 08:04:26;;;;;;;3.53;2.23;;;;;;;19.75;79.09;97791.22;4125385;28;21313;-81
2023/07/27 08:06:29;;;;;;;4.60;2.43;;;;;;;19.78;79.51;97790.09;4122881;28;20649;-81
2023/07/27 08:08:34;;;;;;;4.50;2.80;;;;;;;19.78;77.17;97785.59;4118764;28;20690;-84
2023/07/27 08:10:37;;;;;;;3.90;2.60;;;;;;;19.79;77.08;97781.97;4123737;28;20702;-80
2023/07/27 08:12:40;;;;;;;3.10;2.40;;;;;;;19.84;77.04;97774.34;4124079;28;20664;-80
2023/07/27 08:14:44;;;;;;;5.40;2.53;;;;;;;19.85;76.19;97776.81;4137907;28;20641;-80
2023/07/27 08:16:47;;;;;;;4.90;2.50;;;;;;;19.79;75.48;97771.38;4112918;28;20639;-85
2023/07/27 08:18:51;;;;;;;2.80;2.07;;;;;;;19.87;77.47;97768.75;4123669;28;20691;-81
2023/07/27 08:20:57;;;;;;;4.20;2.47;;;;;;;19.98;75.89;97763.91;4127518;28;20647;-81
2023/07/27 08:23:00;;;;;;;3.10;2.30;;;;;;;20.11;75.83;97773.97;4139932;28;20636;-75
2023/07/27 08:25:06;;;;;;;3.13;2.13;;;;;;;20.22;77.56;97774.44;4102534;28;20661;-82
2023/07/27 08:27:24;;;;;;;3.90;2.47;;;;;;;20.32;76.81;97781.16;4135891;28;20661;-84
2023/07/27 08:29:27;;;;;;;3.70;2.43;;;;;;;20.31;75.96;97769.91;4135285;28;20677;-83
2023/07/27 08:31:30;;;;;;;3.10;2.50;;;;;;;20.24;76.18;97766.31;4121738;28;21223;-77
2023/07/27 08:33:33;;;;;;;3.43;2.17;;;;;;;20.15;75.12;97760.22;4110713;28;20653;-80
2023/07/27 08:35:37;;;;;;;3.00;2.37;;;;;;;20.00;76.43;97761.09;4107873;28;21409;-84
2023/07/27 08:37:40;;;;;;;4.53;2.57;;;;;;;19.87;77.99;97764.28;4121288;28;20658;-83
2023/07/27 08:39:43;;;;;;;3.17;2.30;;;;;;;19.75;76.36;97769.25;4137650;28;20677;-85
2023/07/27 08:41:48;;;;;;;4.27;2.57;;;;;;;19.64;79.62;97772.25;4121090;28;20707;-78
2023/07/27 08:43:51;;;;;;;5.93;2.53;;;;;;;19.45;79.38;97768.16;4120093;28;21218;-81
2023/07/27 08:45:55;;;;;;;4.70;2.50;;;;;;;19.33;80.25;97765.97;4111318;28;21264;-83
2023/07/27 08:47:59;;;;;;;3.50;2.50;;;;;;;19.26;80.75;97772.09;4143115;28;20768;-84
2023/07/27 08:50:03;;;;;;;4.90;2.60;;;;;;;19.24;82.08;97782.03;4122154;28;20651;-80
2023/07/27 08:52:07;;;;;;;4.30;2.57;;;;;;;19.26;81.92;97785.31;4125322;28;20677;-84
2023/07/27 08:54:10;;;;;;;3.37;2.60;;;;;;;19.30;80.89;97784.81;4133198;28;20652;-81
2023/07/27 08:56:13;;;;;;;3.60;2.40;;;;;;;19.35;81.05;97786.97;4123436;28;20693;-81
2023/07/27 08:58:19;;;;;;;4.20;2.37;;;;;;;19.40;83.69;97788.16;4120188;28;21264;-81
2023/07/27 09:00:22;;;;;;;3.73;2.60;;;;;;;19.44;83.46;97794.78;4122379;28;20636;-81
2023/07/27 09:02:26;;;;;;;5.90;2.90;;;;;;;19.43;84.35;97785.97;4123703;28;20657;-81
2023/07/27 09:04:29;;;;;;;6.03;3.80;;;;;;;19.45;85.65;97775.22;4120720;28;20681;-81
2023/07/27 09:06:39;;;;;;;4.07;2.97;;;;;;;19.48;85.69;97777.53;4135310;28;20725;-80
2023/07/27 09:08:43;;;;;;;3.90;2.60;;;;;;;19.46;86.14;97769.78;4133381;28;20652;-81
2023/07/27 09:10:46;;;;;;;3.93;2.33;;;;;;;19.44;86.65;97761.19;4107512;28;20650;-80
2023/07/27 09:12:48;;;;;;;4.07;2.67;;;;;;;19.45;88.03;97757.56;4135098;28;20650;-81
2023/07/27 09:14:53;;;;;;;4.20;2.73;;;;;;;19.44;86.78;97744.50;4105044;28;20647;-81
2023/07/27 09:16:57;;;;;;;3.47;2.90;;;;;;;19.44;85.74;97744.50;4126417;28;20712;-81
2023/07/27 09:19:01;;;;;;;5.10;2.90;;;;;;;19.44;87.00;97744.50;4135882;28;20636;-81
2023/07/27 09:21:08;;;;;;;3.70;2.40;;;;;;;19.43;85.24;97746.28;4126846;28;20642;-81
2023/07/27 09:23:19;;;;;;;4.43;2.50;;;;;;;19.40;83.85;97751.91;4121518;28;20745;-81
2023/07/27 09:25:23;;;;;;;4.67;2.80;;;;;;;19.38;86.09;97755.75;4119793;28;20670;-81
2023/07/27 09:27:26;;;;;;;2.90;2.47;;;;;;;19.40;85.71;97764.34;4121414;28;21266;-92
2023/07/27 09:29:29;;;;;;;5.80;3.23;;;;;;;19.44;86.78;97758.53;4133858;28;20751;-91
2023/07/27 09:31:36;;;;;;;4.10;2.97;;;;;;;19.51;87.86;97751.56;4123101;28;20668;-91
2023/07/27 09:33:39;;;;;;;3.50;2.80;;;;;;;19.56;86.62;97759.00;4136166;28;20630;-91
2023/07/27 09:35:43;;;;;;;3.60;3.30;;;;;;;19.58;86.74;97747.28;4119654;28;20741;-93
2023/07/27 09:37:47;;;;;;;3.63;2.90;;;;;;;19.57;88.25;97753.53;4136223;28;20653;-95
2023/07/27 09:42:26;;;;;;;3.17;2.87;;;;;;;19.53;89.04;97761.97;4164955;28;20734;-92
2023/07/27 09:44:29;;;;;;;4.80;3.17;;;;;;;19.59;90.76;97766.59;4157383;28;20664;-93
2023/07/27 09:46:33;;;;;;;4.33;2.90;;;;;;;19.65;91.54;97763.28;4129198;28;20642;-92